Time;durP1;ratioP1;P1;durP2;ratioP2;P2;SDS_P1;SDS_P2;PMS_P1;PMS_P2;Temp;Humidity;BMP_temperature;BMP_pressure;BME280_temperature;BME280_humidity;BME280_pressure;Samples;Min_cycle;Max_cycle;Signal;HPM_P1;HPM_P2
2024/01/10 00:02:04;;;;;;;;;;;;;;;-5.14;74.28;103053.88;6220518;23;19903;-94
2024/01/10 00:04:34;;;;;;;;;;;;;;;-5.17;75.24;103053.50;6220782;23;19904;-94
2024/01/10 00:07:00;;;;;;;;;;;;;;;-5.18;75.29;103056.75;6220454;23;19931;-95
2024/01/10 00:09:28;;;;;;;;;;;;;;;-5.21;75.19;103051.28;6220566;23;20315;-93
2024/01/10 00:11:59;;;;;;;;;;;;;;;-5.24;74.86;103045.84;6220602;23;19903;-94
2024/01/10 00:14:24;;;;;;;;;;;;;;;-5.26;75.29;103049.81;6220478;23;19943;-94
2024/01/10 00:16:50;;;;;;;;;;;;;;;-5.28;75.23;103046.19;6220598;23;20333;-94
2024/01/10 00:19:18;;;;;;;;;;;;;;;-5.31;74.81;103043.25;6246831;23;20310;-93
2024/01/10 00:21:52;;;;;;;;;;;;;;;-5.35;75.60;103048.69;6220151;23;20021;-94
2024/01/10 00:24:48;;;;;;;;;;;;;;;-5.35;75.03;103041.06;6219031;23;19908;-95
2024/01/10 00:27:19;;;;;;;;;;;;;;;-5.36;75.38;103031.63;6219857;23;19961;-94
2024/01/10 00:29:52;;;;;;;;;;;;;;;-5.36;75.43;103031.63;6220751;23;19904;-94
2024/01/10 00:32:21;;;;;;;;;;;;;;;-5.36;75.66;103027.44;6247576;23;19911;-94
2024/01/10 00:34:46;;;;;;;;;;;;;;;-5.35;75.14;103035.97;6246519;23;20307;-94
2024/01/10 00:37:21;;;;;;;;;;;;;;;-5.36;74.67;103029.97;6220638;23;19911;-93
2024/01/10 00:39:47;;;;;;;;;;;;;;;-5.37;75.06;103033.25;6220371;23;20410;-94
2024/01/10 00:42:18;;;;;;;;;;;;;;;-5.39;75.11;103031.25;6219458;23;19986;-94
2024/01/10 00:44:44;;;;;;;;;;;;;;;-5.42;75.16;103035.25;6220401;23;19907;-94
2024/01/10 00:47:10;;;;;;;;;;;;;;;-5.43;75.22;103033.41;6220660;23;19979;-94
2024/01/10 00:49:52;;;;;;;;;;;;;;;-5.45;75.37;103039.91;6220165;23;20387;-95
2024/01/10 00:52:23;;;;;;;;;;;;;;;-5.46;75.44;103035.56;6219958;23;19911;-94
2024/01/10 00:54:48;;;;;;;;;;;;;;;-5.47;75.15;103030.31;6219973;23;19934;-94
2024/01/10 00:57:16;;;;;;;;;;;;;;;-5.49;74.97;103030.13;6220131;23;19904;-94
2024/01/10 00:59:44;;;;;;;;;;;;;;;-5.48;75.56;103025.94;6219588;23;19914;-95
2024/01/10 01:02:15;;;;;;;;;;;;;;;-5.49;75.67;103022.50;6219507;23;19993;-93
2024/01/10 01:04:43;;;;;;;;;;;;;;;-5.52;75.50;103024.63;6219584;23;19914;-94
2024/01/10 01:07:09;;;;;;;;;;;;;;;-5.53;75.98;103025.38;6219763;23;19903;-94
2024/01/10 01:09:34;;;;;;;;;;;;;;;-5.54;75.13;103031.16;6220540;23;19927;-94
2024/01/10 01:12:03;;;;;;;;;;;;;;;-5.54;75.62;103028.63;6219720;23;19954;-94
2024/01/10 01:14:31;;;;;;;;;;;;;;;-5.55;76.20;103024.25;6219186;23;19908;-94
2024/01/10 01:17:02;;;;;;;;;;;;;;;-5.56;76.12;103025.00;6247122;23;19911;-95
2024/01/10 01:19:33;;;;;;;;;;;;;;;-5.57;75.86;103013.00;6220051;23;19990;-94
2024/01/10 01:22:01;;;;;;;;;;;;;;;-5.58;76.04;103013.72;6219982;23;19908;-94
2024/01/10 01:24:37;;;;;;;;;;;;;;;-5.58;76.41;103021.34;6219999;23;19908;-95
2024/01/10 01:27:02;;;;;;;;;;;;;;;-5.56;76.21;103026.63;6220054;23;19902;-95
2024/01/10 01:29:31;;;;;;;;;;;;;;;-5.57;75.79;103025.72;6220172;23;19919;-94
2024/01/10 01:32:02;;;;;;;;;;;;;;;-5.60;76.30;103015.19;6220195;23;19903;-94
2024/01/10 01:34:30;;;;;;;;;;;;;;;-5.63;75.99;103012.28;6219542;23;19953;-94
2024/01/10 01:37:00;;;;;;;;;;;;;;;-5.65;76.23;103018.78;6218676;23;19903;-94
2024/01/10 01:39:28;;;;;;;;;;;;;;;-5.66;76.40;103016.94;6219814;23;19904;-94
2024/01/10 01:42:01;;;;;;;;;;;;;;;-5.67;76.26;103016.03;6219637;23;19904;-94
2024/01/10 01:44:34;;;;;;;;;;;;;;;-5.67;76.27;103015.16;6219731;23;19927;-93
2024/01/10 01:47:02;;;;;;;;;;;;;;;-5.67;76.19;103016.03;6220049;23;19903;-96
2024/01/10 01:49:31;;;;;;;;;;;;;;;-5.67;76.30;103015.16;6219391;23;20381;-93
2024/01/10 01:52:19;;;;;;;;;;;;;;;-5.66;76.41;103016.94;6219125;23;19985;-94
2024/01/10 01:54:45;;;;;;;;;;;;;;;-5.66;76.78;103016.94;6246301;23;20350;-94
2024/01/10 01:57:10;;;;;;;;;;;;;;;-5.67;76.87;103010.97;6219831;23;19907;-94
2024/01/10 01:59:41;;;;;;;;;;;;;;;-5.67;76.39;103012.59;6219175;23;19899;-94
2024/01/10 02:02:09;;;;;;;;;;;;;;;-5.67;77.08;103012.59;6218181;23;19912;-94
2024/01/10 02:04:37;;;;;;;;;;;;;;;-5.70;76.77;103012.22;6218141;23;19910;-94
2024/01/10 02:07:03;;;;;;;;;;;;;;;-5.69;76.57;103008.94;6219290;23;19911;-93
2024/01/10 02:09:43;;;;;;;;;;;;;;;-5.70;76.66;103000.44;6219570;23;19903;-95
2024/01/10 02:12:14;;;;;;;;;;;;;;;-5.68;77.08;103008.25;6219534;23;19941;-94
2024/01/10 02:14:42;;;;;;;;;;;;;;;-5.67;77.28;103007.53;6218343;23;20368;-94
2024/01/10 02:17:08;;;;;;;;;;;;;;;-5.68;76.54;103000.63;6219453;23;19904;-94
2024/01/10 02:19:39;;;;;;;;;;;;;;;-5.68;76.84;102995.53;6218979;23;19904;-93
2024/01/10 02:22:05;;;;;;;;;;;;;;;-5.68;77.48;103000.63;6219413;23;19904;-94
2024/01/10 02:24:37;;;;;;;;;;;;;;;-5.69;76.97;103001.34;6219313;23;19903;-94
2024/01/10 02:27:05;;;;;;;;;;;;;;;-5.70;76.91;102997.91;6218781;23;19974;-95
2024/01/10 02:29:41;;;;;;;;;;;;;;;-5.70;77.13;102995.34;6219270;23;19908;-95
2024/01/10 02:32:19;;;;;;;;;;;;;;;-5.67;77.52;103002.44;6219287;23;19986;-94
2024/01/10 02:34:49;;;;;;;;;;;;;;;-5.68;77.95;102998.09;6219145;23;19907;-94
2024/01/10 02:37:21;;;;;;;;;;;;;;;-5.71;77.76;103007.88;6219011;23;19907;-93
2024/01/10 02:39:49;;;;;;;;;;;;;;;-5.73;77.96;102999.16;6218256;23;19904;-94
2024/01/10 02:42:14;;;;;;;;;;;;;;;-5.76;77.33;102998.03;6218839;23;20357;-94
2024/01/10 02:44:45;;;;;;;;;;;;;;;-5.76;77.59;102999.69;6217766;23;19904;-94
2024/01/10 02:47:11;;;;;;;;;;;;;;;-5.76;77.49;102995.50;6219159;23;19978;-96
2024/01/10 02:49:45;;;;;;;;;;;;;;;-5.73;77.69;102989.00;6219203;23;19899;-94
2024/01/10 02:52:19;;;;;;;;;;;;;;;-5.73;77.75;102989.00;6219250;23;19916;-94
2024/01/10 02:55:01;;;;;;;;;;;;;;;-5.72;78.22;102981.56;6219193;23;19908;-95
2024/01/10 02:57:29;;;;;;;;;;;;;;;-5.68;78.40;102987.94;6218987;23;20026;-94
2024/01/10 03:00:17;;;;;;;;;;;;;;;-5.68;78.63;102977.75;6219037;23;19908;-95
2024/01/10 03:02:43;;;;;;;;;;;;;;;-5.69;78.38;102970.84;6221952;23;19907;-94
2024/01/10 03:05:11;;;;;;;;;;;;;;;-5.70;78.43;102969.97;6218466;23;19903;-94
2024/01/10 03:07:39;;;;;;;;;;;;;;;-5.68;78.08;102968.50;6219406;23;19925;-94
2024/01/10 03:10:05;;;;;;;;;;;;;;;-5.68;78.73;102973.59;6219280;23;19903;-94
2024/01/10 03:12:37;;;;;;;;;;;;;;;-5.67;78.16;102970.34;6219313;23;19911;-94
2024/01/10 03:15:04;;;;;;;;;;;;;;;-5.69;78.23;102963.25;6218731;23;19908;-93
2024/01/10 03:17:41;;;;;;;;;;;;;;;-5.70;78.77;102959.81;6219569;23;19903;-93
2024/01/10 03:20:09;;;;;;;;;;;;;;;-5.71;78.97;102967.22;6218794;23;20341;-93
2024/01/10 03:22:37;;;;;;;;;;;;;;;-5.73;78.91;102964.50;6219055;23;19910;-94
2024/01/10 03:25:02;;;;;;;;;;;;;;;-5.76;78.95;102957.41;6217570;23;19947;-94
2024/01/10 03:27:37;;;;;;;;;;;;;;;-5.77;78.47;102950.50;6219348;23;19903;-95
2024/01/10 03:30:11;;;;;;;;;;;;;;;-5.74;79.30;102947.44;6220293;23;19904;-93
2024/01/10 03:32:40;;;;;;;;;;;;;;;-5.76;78.42;102939.66;6221043;23;19938;-96
2024/01/10 03:35:06;;;;;;;;;;;;;;;-5.75;79.23;102953.25;6221275;23;20315;-95
2024/01/10 03:37:31;;;;;;;;;;;;;;;-5.76;78.78;102948.91;6221650;23;19904;-94
2024/01/10 03:39:59;;;;;;;;;;;;;;;-5.76;79.10;102952.34;6220921;23;19915;-94
2024/01/10 03:42:24;;;;;;;;;;;;;;;-5.76;78.84;102947.25;6220571;23;20372;-94
2024/01/10 03:44:52;;;;;;;;;;;;;;;-5.74;78.93;102950.00;6221296;23;19908;-95
2024/01/10 03:47:32;;;;;;;;;;;;;;;-5.74;79.54;102938.94;6220637;23;19903;-94
2024/01/10 03:50:00;;;;;;;;;;;;;;;-5.76;79.21;102938.75;6220195;23;19915;-94
2024/01/10 03:52:25;;;;;;;;;;;;;;;-5.76;78.93;102933.66;6220695;23;19915;-94
2024/01/10 03:54:51;;;;;;;;;;;;;;;-5.78;78.66;102933.47;6220826;23;19911;-95
2024/01/10 03:57:19;;;;;;;;;;;;;;;-5.78;79.43;102936.03;6221001;23;19903;-94
2024/01/10 03:59:47;;;;;;;;;;;;;;;-5.80;79.34;102931.47;6219789;23;19903;-95
2024/01/10 04:02:18;;;;;;;;;;;;;;;-5.84;79.40;102920.00;6220914;23;19903;-95
2024/01/10 04:04:45;;;;;;;;;;;;;;;-5.84;78.95;102927.63;6220726;23;19903;-94
2024/01/10 04:07:14;;;;;;;;;;;;;;;-5.84;79.12;102924.19;6220576;23;19932;-95
2024/01/10 04:09:39;;;;;;;;;;;;;;;-5.85;79.63;102920.75;6220085;23;19904;-94
2024/01/10 04:12:05;;;;;;;;;;;;;;;-5.85;79.80;102922.38;6220728;23;19909;-95
2024/01/10 04:14:32;;;;;;;;;;;;;;;-5.86;80.03;102929.09;6220463;23;19914;-94
2024/01/10 04:17:01;;;;;;;;;;;;;;;-5.86;80.20;102921.47;6220679;23;19907;-96
2024/01/10 04:19:33;;;;;;;;;;;;;;;-5.85;79.88;102920.75;6220640;23;19927;-95
2024/01/10 04:22:01;;;;;;;;;;;;;;;-5.86;79.89;102912.97;6220665;23;19908;-94
2024/01/10 04:24:29;;;;;;;;;;;;;;;-5.88;80.36;102917.84;6220460;23;19903;-94
2024/01/10 04:27:01;;;;;;;;;;;;;;;-5.88;79.59;102920.38;6220948;23;19927;-94
2024/01/10 04:29:26;;;;;;;;;;;;;;;-5.85;80.53;102912.22;6220378;23;19942;-95
2024/01/10 04:31:57;;;;;;;;;;;;;;;-5.86;80.01;102907.88;6220640;23;19904;-95
2024/01/10 04:34:28;;;;;;;;;;;;;;;-5.86;80.19;102923.13;6220806;23;20317;-94
2024/01/10 04:36:56;;;;;;;;;;;;;;;-5.86;80.54;102924.00;6220667;23;19982;-94
2024/01/10 04:39:40;;;;;;;;;;;;;;;-5.86;80.29;102921.47;6219996;23;19908;-94
2024/01/10 04:42:05;;;;;;;;;;;;;;;-5.86;79.97;102916.38;6220311;23;19953;-94
2024/01/10 04:44:37;;;;;;;;;;;;;;;-5.86;80.36;102921.47;6220327;23;19954;-94
2024/01/10 04:47:02;;;;;;;;;;;;;;;-5.88;80.51;102915.31;6220900;23;19929;-92
2024/01/10 04:49:33;;;;;;;;;;;;;;;-5.89;80.09;102920.16;6220212;23;20318;-94
2024/01/10 04:52:00;;;;;;;;;;;;;;;-5.92;80.29;102920.72;6219878;23;19915;-93
2024/01/10 04:54:32;;;;;;;;;;;;;;;-5.92;80.44;102925.81;6220512;23;19915;-94
2024/01/10 04:57:00;;;;;;;;;;;;;;;-5.94;80.42;102917.06;6220624;23;19903;-95
2024/01/10 04:59:31;;;;;;;;;;;;;;;-5.95;81.06;102905.13;6220209;23;19904;-94
2024/01/10 05:01:59;;;;;;;;;;;;;;;-5.94;81.47;102907.84;6220164;23;19910;-94
2024/01/10 05:04:25;;;;;;;;;;;;;;;-5.93;80.71;102908.75;6219729;23;19903;-92
2024/01/10 05:06:50;;;;;;;;;;;;;;;-5.94;81.32;102906.91;6220550;23;19951;-95
2024/01/10 05:12:01;;;;;;;;;;;;;;;-5.98;81.19;102914.91;6246821;23;19907;-95
2024/01/10 05:36:26;;;;;;;;;;;;;;;-6.02;81.61;102907.66;6245225;23;19962;-94
2024/01/10 05:38:54;;;;;;;;;;;;;;;-6.02;81.11;102900.03;6217867;23;19939;-94
2024/01/10 05:41:22;;;;;;;;;;;;;;;-6.01;80.82;102901.84;6218155;23;19907;-94
2024/01/10 05:43:49;;;;;;;;;;;;;;;-6.01;81.05;102897.69;6218136;23;19911;-94
2024/01/10 05:46:19;;;;;;;;;;;;;;;-6.00;81.21;102907.09;6218586;23;19903;-95
2024/01/10 05:49:05;;;;;;;;;;;;;;;-6.00;81.11;102901.13;6219396;23;19939;-94
2024/01/10 05:51:32;;;;;;;;;;;;;;;-5.98;81.46;102909.81;6218898;23;19933;-95
2024/01/10 05:54:00;;;;;;;;;;;;;;;-5.98;81.21;102907.28;6219303;23;19911;-94
2024/01/10 05:56:31;;;;;;;;;;;;;;;-5.99;81.45;102908.94;6219192;23;19982;-93
2024/01/10 05:58:56;;;;;;;;;;;;;;;-6.02;81.53;102913.63;6246163;23;20329;-93
2024/01/10 06:01:25;;;;;;;;;;;;;;;-6.02;81.92;102907.66;6219146;23;19923;-94
2024/01/10 06:03:57;;;;;;;;;;;;;;;-6.02;81.88;102915.28;6219821;23;19904;-95
2024/01/10 06:06:23;;;;;;;;;;;;;;;-6.03;81.17;102901.66;6219424;23;19904;-94
2024/01/10 06:08:51;;;;;;;;;;;;;;;-6.04;81.25;102899.84;6219594;23;19904;-94
2024/01/10 06:11:20;;;;;;;;;;;;;;;-6.06;81.58;102896.19;6219581;23;19909;-95
2024/01/10 06:13:48;;;;;;;;;;;;;;;-6.08;81.65;102901.81;6219464;23;19910;-94
2024/01/10 06:16:13;;;;;;;;;;;;;;;-6.10;81.21;102894.00;6219476;23;19982;-93
2024/01/10 06:18:44;;;;;;;;;;;;;;;-6.11;81.38;102899.81;6219435;23;19938;-93
2024/01/10 06:21:10;;;;;;;;;;;;;;;-6.12;81.81;102898.88;6219501;23;19954;-94
2024/01/10 06:23:41;;;;;;;;;;;;;;;-6.13;81.56;102899.59;6219387;23;20310;-94
2024/01/10 06:26:07;;;;;;;;;;;;;;;-6.13;81.60;102892.00;6219478;23;19934;-95
2024/01/10 06:28:35;;;;;;;;;;;;;;;-6.14;81.32;102889.25;6220067;23;19904;-93
2024/01/10 06:31:00;;;;;;;;;;;;;;;-6.16;81.92;102886.53;6219521;23;20364;-95
2024/01/10 06:33:26;;;;;;;;;;;;;;;-6.15;81.96;102890.91;6219582;23;19907;-95
2024/01/10 06:35:54;;;;;;;;;;;;;;;-6.17;81.89;102897.44;6219421;23;19912;-94
2024/01/10 06:38:22;;;;;;;;;;;;;;;-6.16;81.39;102896.69;6219038;23;19943;-93
2024/01/10 06:40:47;;;;;;;;;;;;;;;-6.16;81.48;102895.78;6219340;23;19953;-94
2024/01/10 06:43:15;;;;;;;;;;;;;;;-6.17;81.69;102910.13;6219105;23;19970;-94
2024/01/10 06:45:42;;;;;;;;;;;;;;;-6.18;81.87;102903.22;6219679;23;19907;-93
2024/01/10 06:48:16;;;;;;;;;;;;;;;-6.20;82.40;102902.13;6220219;23;19899;-94
2024/01/10 06:50:41;;;;;;;;;;;;;;;-6.22;82.27;102911.16;6219217;23;19907;-94
2024/01/10 06:53:07;;;;;;;;;;;;;;;-6.22;81.90;102910.25;6219221;23;19963;-94
2024/01/10 06:55:35;;;;;;;;;;;;;;;-6.24;82.09;102912.59;6219075;23;19914;-95
2024/01/10 06:58:02;;;;;;;;;;;;;;;-6.23;82.48;102905.91;6219697;23;19956;-94
2024/01/10 07:00:32;;;;;;;;;;;;;;;-6.24;82.59;102905.00;6219156;23;19903;-94
2024/01/10 07:03:20;;;;;;;;;;;;;;;-6.25;82.84;102910.78;6246008;23;19904;-95
2024/01/10 07:05:57;;;;;;;;;;;;;;;-6.24;82.36;102909.16;6246308;23;19904;-94
2024/01/10 07:08:22;;;;;;;;;;;;;;;-6.25;82.34;102903.16;6221287;23;19908;-94
2024/01/10 07:10:55;;;;;;;;;;;;;;;-6.26;82.43;102906.41;6221564;23;20314;-94
2024/01/10 07:13:24;;;;;;;;;;;;;;;-6.28;82.79;102910.41;6220801;23;19903;-94
2024/01/10 07:16:01;;;;;;;;;;;;;;;-6.29;82.98;102919.63;6247613;23;19907;-94
2024/01/10 07:18:50;;;;;;;;;;;;;;;-6.28;82.69;102918.00;6221351;23;19915;-94
2024/01/10 07:21:16;;;;;;;;;;;;;;;-6.30;82.66;102911.81;6221319;23;19904;-94
2024/01/10 07:23:46;;;;;;;;;;;;;;;-6.30;82.65;102906.75;6220409;22;19914;-95
2024/01/10 07:26:17;;;;;;;;;;;;;;;-6.31;82.91;102907.50;6221198;23;19903;-94
2024/01/10 07:28:45;;;;;;;;;;;;;;;-6.31;82.76;102910.03;6219529;23;19907;-94
2024/01/10 07:31:13;;;;;;;;;;;;;;;-6.32;83.46;102896.41;6220551;23;19907;-93
2024/01/10 07:33:42;;;;;;;;;;;;;;;-6.32;83.10;102908.19;6219757;23;19908;-94
2024/01/10 07:36:08;;;;;;;;;;;;;;;-6.31;83.04;102904.97;6220870;23;19914;-94
2024/01/10 07:38:42;;;;;;;;;;;;;;;-6.31;82.74;102898.25;6220976;23;19939;-94
2024/01/10 07:41:13;;;;;;;;;;;;;;;-6.30;83.23;102904.22;6220450;23;19986;-93
2024/01/10 07:43:39;;;;;;;;;;;;;;;-6.30;83.03;102899.13;6220399;23;19909;-93
2024/01/10 07:46:04;;;;;;;;;;;;;;;-6.31;83.29;102898.25;6220593;23;19908;-94
2024/01/10 07:48:33;;;;;;;;;;;;;;;-6.30;83.37;102896.59;6220949;23;19903;-94
2024/01/10 07:50:58;;;;;;;;;;;;;;;-6.31;83.33;102889.72;6221038;23;19908;-94
2024/01/10 07:53:26;;;;;;;;;;;;;;;-6.29;83.43;102894.25;6219274;23;20348;-93
2024/01/10 07:55:52;;;;;;;;;;;;;;;-6.28;82.98;102892.66;6247163;23;19911;-93
2024/01/10 07:58:19;;;;;;;;;;;;;;;-6.26;83.21;102895.38;6220698;23;19903;-92
2024/01/10 08:00:46;;;;;;;;;;;;;;;-6.27;83.43;102899.56;6220839;23;19903;-93
2024/01/10 08:03:21;;;;;;;;;;;;;;;-6.24;83.82;102904.06;6219260;23;19965;-93
2024/01/10 08:05:47;;;;;;;;;;;;;;;-6.20;83.53;102901.19;6218791;23;19907;-94
2024/01/10 08:08:20;;;;;;;;;;;;;;;-6.15;83.41;102892.53;6220667;23;19903;-94
2024/01/10 08:10:48;;;;;;;;;;;;;;;-6.12;83.99;102900.53;6220664;23;20022;-94
2024/01/10 08:13:16;;;;;;;;;;;;;;;-6.09;83.46;102905.09;6220146;23;19919;-94
2024/01/10 08:15:44;;;;;;;;;;;;;;;-6.08;83.41;102899.25;6218515;23;19911;-94
2024/01/10 08:18:17;;;;;;;;;;;;;;;-6.07;83.63;102911.25;6220577;23;20337;-93
2024/01/10 08:20:42;;;;;;;;;;;;;;;-6.05;83.89;102910.72;6220302;23;19919;-93
2024/01/10 08:23:08;;;;;;;;;;;;;;;-6.00;83.46;102911.28;6218717;23;20324;-94
2024/01/10 08:25:40;;;;;;;;;;;;;;;-5.96;84.29;102910.91;6220486;23;19914;-93
2024/01/10 08:28:05;;;;;;;;;;;;;;;-5.91;83.33;102914.91;6220023;23;19903;-94
2024/01/10 08:30:32;;;;;;;;;;;;;;;-5.85;84.35;102917.28;6219825;23;19982;-93
2024/01/10 08:33:04;;;;;;;;;;;;;;;-5.82;84.35;102923.66;6219763;23;19903;-94
2024/01/10 08:35:29;;;;;;;;;;;;;;;-5.76;84.45;102914.25;6220460;23;19911;-94
2024/01/10 08:37:55;;;;;;;;;;;;;;;-5.69;84.42;102920.06;6220531;23;19903;-93
2024/01/10 08:40:25;;;;;;;;;;;;;;;-5.62;84.13;102922.66;6247116;23;19910;-93
2024/01/10 08:42:51;;;;;;;;;;;;;;;-5.55;83.74;102914.16;6220384;23;19966;-94
2024/01/10 08:45:17;;;;;;;;;;;;;;;-5.50;83.65;102916.53;6220606;23;19986;-94
2024/01/10 08:47:46;;;;;;;;;;;;;;;-5.46;83.22;102916.19;6219935;23;19943;-95
2024/01/10 08:50:11;;;;;;;;;;;;;;;-5.41;83.14;102915.09;6219752;23;19903;-93
2024/01/10 08:52:39;;;;;;;;;;;;;;;-5.36;83.63;102910.56;6219065;23;19911;-93
2024/01/10 08:55:12;;;;;;;;;;;;;;;-5.31;82.74;102916.22;6219943;23;19915;-93
2024/01/10 08:57:38;;;;;;;;;;;;;;;-5.28;82.72;102917.50;6220214;23;20314;-93
2024/01/10 09:00:06;;;;;;;;;;;;;;;-5.20;83.33;102922.59;6220252;23;19931;-93
2024/01/10 09:02:33;;;;;;;;;;;;;;;-5.16;82.77;102915.50;6220026;23;19914;-94
2024/01/10 09:05:01;;;;;;;;;;;;;;;-5.11;82.45;102916.97;6219991;23;19958;-93
2024/01/10 09:07:48;;;;;;;;;;;;;;;-5.04;83.29;102922.78;6219317;23;20315;-92
2024/01/10 09:10:17;;;;;;;;;;;;;;;-4.96;82.21;102922.09;6219138;23;19978;-93
2024/01/10 09:12:45;;;;;;;;;;;;;;;-4.87;82.48;102915.53;6219782;23;19908;-94
2024/01/10 09:15:17;;;;;;;;;;;;;;;-4.77;82.37;102925.19;6219184;23;19908;-94
2024/01/10 09:17:50;;;;;;;;;;;;;;;-4.72;82.68;102922.47;6219745;23;19907;-94
2024/01/10 09:20:21;;;;;;;;;;;;;;;-4.65;82.08;102925.72;6219701;23;19904;-93
2024/01/10 09:22:52;;;;;;;;;;;;;;;-4.62;82.34;102932.09;6219401;23;19938;-94
2024/01/10 09:25:17;;;;;;;;;;;;;;;-4.63;82.04;102931.91;6218443;23;19911;-94
2024/01/10 09:27:46;;;;;;;;;;;;;;;-4.60;81.62;102939.91;6219697;23;19903;-94
2024/01/10 09:30:18;;;;;;;;;;;;;;;-4.59;81.49;102935.00;6219766;23;19954;-93
2024/01/10 09:32:46;;;;;;;;;;;;;;;-4.62;81.20;102936.25;6220288;23;19900;-92
2024/01/10 09:35:18;;;;;;;;;;;;;;;-4.65;80.94;102935.91;6220283;23;19915;-92
2024/01/10 09:37:45;;;;;;;;;;;;;;;-4.65;81.14;102935.91;6219371;23;19903;-94
2024/01/10 09:40:14;;;;;;;;;;;;;;;-4.65;81.43;102936.81;6218783;23;19926;-93
2024/01/10 09:42:45;;;;;;;;;;;;;;;-4.65;80.83;102940.97;6219446;23;19903;-93
2024/01/10 09:45:23;;;;;;;;;;;;;;;-4.65;80.61;102940.97;6219318;23;19903;-94
2024/01/10 09:47:49;;;;;;;;;;;;;;;-4.63;80.69;102939.53;6220169;23;19903;-94
2024/01/10 09:50:15;;;;;;;;;;;;;;;-4.63;80.76;102937.91;6219498;23;19903;-94
2024/01/10 09:53:15;;;;;;;;;;;;;;;-4.61;80.24;102943.16;6219039;23;19960;-93
2024/01/10 09:55:50;;;;;;;;;;;;;;;-4.59;81.15;102939.16;6194028;23;19935;-93
2024/01/10 09:58:16;;;;;;;;;;;;;;;-4.57;81.02;102930.09;6245507;23;19903;-93
2024/01/10 10:00:44;;;;;;;;;;;;;;;-4.55;80.93;102948.97;6218981;23;19912;-94
2024/01/10 10:03:12;;;;;;;;;;;;;;;-4.51;80.78;102945.16;6219491;23;19903;-93
2024/01/10 10:05:43;;;;;;;;;;;;;;;-4.50;80.85;102947.91;6219355;23;20369;-93
2024/01/10 10:08:21;;;;;;;;;;;;;;;-4.47;80.46;102945.72;6219227;23;19903;-93
2024/01/10 10:10:48;;;;;;;;;;;;;;;-4.45;79.98;102936.59;6218003;23;19900;-93
2024/01/10 10:13:27;;;;;;;;;;;;;;;-4.41;80.44;102941.34;6218475;23;19907;-92
2024/01/10 10:16:02;;;;;;;;;;;;;;;-4.38;80.43;102934.06;6218136;23;19919;-93
2024/01/10 10:18:33;;;;;;;;;;;;;;;-4.34;80.35;102929.31;6218665;23;19904;-93
2024/01/10 10:21:22;;;;;;;;;;;;;;;-4.32;80.06;102930.44;6218684;23;19960;-93
2024/01/10 10:24:03;;;;;;;;;;;;;;;-4.30;79.86;102931.50;6218779;22;20211;-93
2024/01/10 10:26:33;;;;;;;;;;;;;;;-4.27;79.74;102932.78;6219720;23;19904;-93
2024/01/10 10:29:02;;;;;;;;;;;;;;;-4.23;80.10;102936.59;6219572;23;19907;-95
2024/01/10 10:31:33;;;;;;;;;;;;;;;-4.20;79.16;102931.84;6218940;23;19903;-95
2024/01/10 10:34:00;;;;;;;;;;;;;;;-4.16;79.33;102926.38;6219454;23;19907;-94
2024/01/10 10:36:28;;;;;;;;;;;;;;;-4.13;79.74;102916.56;6219373;23;19914;-94
2024/01/10 10:38:56;;;;;;;;;;;;;;;-4.09;79.30;102913.63;6218261;23;19904;-94
2024/01/10 10:41:45;;;;;;;;;;;;;;;-4.04;78.96;102911.63;6218347;23;19985;-94
2024/01/10 10:44:23;;;;;;;;;;;;;;;-3.97;78.98;102908.16;6218629;23;19970;-96
2024/01/10 10:46:49;;;;;;;;;;;;;;;-3.91;78.85;102909.78;6219225;23;19903;-94
2024/01/10 10:49:20;;;;;;;;;;;;;;;-3.88;78.65;102912.69;6219324;23;19904;-94
2024/01/10 10:52:06;;;;;;;;;;;;;;;-3.85;78.65;102912.13;6218250;23;19903;-94
2024/01/10 10:54:40;;;;;;;;;;;;;;;-3.81;78.76;102915.91;6242748;23;20518;-93
2024/01/10 10:57:05;;;;;;;;;;;;;;;-3.78;78.65;102913.72;6218203;23;19904;-94
2024/01/10 10:59:39;;;;;;;;;;;;;;;-3.75;79.00;102916.63;6219543;23;19903;-93
2024/01/10 11:02:06;;;;;;;;;;;;;;;-3.72;78.73;102915.34;6218761;23;19949;-95
2024/01/10 11:04:37;;;;;;;;;;;;;;;-3.68;78.65;102911.50;6218409;23;19908;-94
2024/01/10 11:07:02;;;;;;;;;;;;;;;-3.63;78.64;102906.94;6245998;23;19931;-94
2024/01/10 11:09:31;;;;;;;;;;;;;;;-3.59;78.35;102909.09;6219157;23;19957;-95
2024/01/10 11:12:00;;;;;;;;;;;;;;;-3.56;78.56;102910.34;6219287;23;19903;-95
2024/01/10 11:14:46;;;;;;;;;;;;;;;-3.52;78.37;102914.16;6218882;23;19904;-95
2024/01/10 11:17:43;;;;;;;;;;;;;;;-3.48;78.42;102907.78;6219602;23;19915;-95
2024/01/10 11:20:29;;;;;;;;;;;;;;;-3.45;78.37;102909.00;6219526;23;19910;-95
2024/01/10 11:22:58;;;;;;;;;;;;;;;-3.42;78.38;102896.63;6219721;23;20504;-95
2024/01/10 11:25:33;;;;;;;;;;;;;;;-3.39;78.41;102898.59;6243791;22;19907;-95
2024/01/10 11:28:03;;;;;;;;;;;;;;;-3.35;78.07;102896.56;6220583;23;19925;-96
2024/01/10 11:30:43;;;;;;;;;;;;;;;-3.29;77.81;102880.16;6221203;23;19904;-95
2024/01/10 11:33:31;;;;;;;;;;;;;;;-3.21;77.98;102887.94;6243529;23;19904;-95
2024/01/10 11:36:15;;;;;;;;;;;;;;;-3.05;77.99;102887.09;6244738;23;19947;-95
2024/01/10 11:38:41;;;;;;;;;;;;;;;-3.02;77.13;102883.25;6218388;23;19904;-95
2024/01/10 11:41:09;;;;;;;;;;;;;;;-3.03;76.73;102886.53;6222669;23;19924;-78
2024/01/10 11:43:35;;;;;;;;;;;;;;;-3.03;77.09;102872.88;6267224;22;19911;-78
2024/01/10 11:46:00;;;;;;;;;;;;;;;-3.04;76.82;102879.63;6244797;22;19911;-79
2024/01/10 11:48:31;;;;;;;;;;;;;;;-3.03;77.03;102880.53;6245857;22;20868;-75
2024/01/10 11:50:57;;;;;;;;;;;;;;;-3.01;77.08;102867.22;6274715;22;19903;-75
2024/01/10 11:53:53;;;;;;;;;;;;;;;-2.98;76.80;102867.56;6275893;22;19988;-75
2024/01/10 11:56:18;;;;;;;;;;;;;;;-2.95;76.16;102873.72;6228708;23;20322;-75
2024/01/10 11:58:55;;;;;;;;;;;;;;;-2.94;76.45;102866.25;6244741;23;20326;-76
2024/01/10 12:01:22;;;;;;;;;;;;;;;-2.90;76.40;102872.59;6217622;23;19904;-76
2024/01/10 12:03:47;;;;;;;;;;;;;;;-2.87;76.69;102870.38;6244842;23;19904;-76
2024/01/10 12:06:14;;;;;;;;;;;;;;;-2.84;76.15;102874.19;6244583;23;19903;-77
2024/01/10 12:08:39;;;;;;;;;;;;;;;-2.80;76.70;102862.66;6245200;23;20003;-77
2024/01/10 12:11:05;;;;;;;;;;;;;;;-2.77;76.20;102860.44;6244731;23;19939;-77
2024/01/10 12:13:31;;;;;;;;;;;;;;;-2.74;75.56;102860.78;6244616;23;19903;-77
2024/01/10 12:15:56;;;;;;;;;;;;;;;-2.71;76.27;102866.25;6244959;23;19910;-77
2024/01/10 12:18:21;;;;;;;;;;;;;;;-2.68;76.02;102853.81;6244374;23;20246;-77
2024/01/10 12:20:47;;;;;;;;;;;;;;;-2.64;75.94;102855.97;6244570;23;20322;-77
2024/01/10 12:23:12;;;;;;;;;;;;;;;-2.60;76.36;102854.63;6245234;23;20285;-77
2024/01/10 12:25:37;;;;;;;;;;;;;;;-2.56;76.36;102860.97;6244650;23;20274;-77
2024/01/10 12:28:03;;;;;;;;;;;;;;;-2.53;75.99;102851.13;6244388;23;19957;-77
2024/01/10 12:30:28;;;;;;;;;;;;;;;-2.51;76.01;102850.53;6217919;23;19910;-78
2024/01/10 12:32:53;;;;;;;;;;;;;;;-2.48;75.74;102850.88;6244559;23;19953;-78
2024/01/10 12:35:22;;;;;;;;;;;;;;;-2.45;76.03;102850.28;6217623;23;20230;-78
2024/01/10 12:37:55;;;;;;;;;;;;;;;-2.42;75.91;102854.81;6244310;23;19934;-77
2024/01/10 12:40:20;;;;;;;;;;;;;;;-2.39;75.85;102853.53;6244394;23;19904;-78
2024/01/10 12:42:45;;;;;;;;;;;;;;;-2.36;75.81;102851.31;6217192;23;19918;-77
2024/01/10 12:45:21;;;;;;;;;;;;;;;-2.33;75.84;102846.53;6244294;23;19941;-78
2024/01/10 12:47:46;;;;;;;;;;;;;;;-2.30;75.59;102849.41;6216917;23;20045;-77
2024/01/10 12:50:12;;;;;;;;;;;;;;;-2.27;75.57;102852.28;6244364;23;19908;-77
2024/01/10 12:52:39;;;;;;;;;;;;;;;-2.24;75.47;102848.28;6244237;23;19914;-77
2024/01/10 12:55:05;;;;;;;;;;;;;;;-2.22;75.77;102855.31;6243931;22;19908;-77
2024/01/10 12:57:30;;;;;;;;;;;;;;;-2.18;75.31;102856.56;6217033;23;20203;-77
2024/01/10 12:59:55;;;;;;;;;;;;;;;-2.16;75.60;102845.78;6244042;23;19904;-77
2024/01/10 13:02:21;;;;;;;;;;;;;;;-2.13;75.20;102850.28;6243825;23;19907;-77
2024/01/10 13:04:46;;;;;;;;;;;;;;;-2.11;75.45;102854.84;6244195;23;19907;-77
2024/01/10 13:07:12;;;;;;;;;;;;;;;-2.08;75.33;102853.38;6217042;23;20230;-77
2024/01/10 13:09:37;;;;;;;;;;;;;;;-2.06;75.62;102851.88;6216625;23;19931;-77
2024/01/10 13:12:03;;;;;;;;;;;;;;;-2.02;75.07;102852.34;6244125;23;19903;-76
2024/01/10 13:14:31;;;;;;;;;;;;;;;-2.00;75.55;102852.50;6243938;23;19975;-76